Time;durP1;ratioP1;P1;durP2;ratioP2;P2;SDS_P1;SDS_P2;PMS_P1;PMS_P2;Temp;Humidity;BMP_temperature;BMP_pressure;BME280_temperature;BME280_humidity;BME280_pressure;Samples;Min_cycle;Max_cycle;Signal;HPM_P1;HPM_P2
2023/04/08 00:01:27;;;;;;;;;;;;;;;;;;5106053;28;19926;-62
2023/04/08 00:03:53;;;;;;;;;;;;;;;;;;5100677;28;19928;-62
2023/04/08 00:06:19;;;;;;;;;;;;;;;;;;5070305;28;20046;-62
2023/04/08 00:08:45;;;;;;;;;;;;;;;;;;5070334;28;19969;-62
2023/04/08 00:11:11;;;;;;;;;;;;;;;;;;5071901;28;19927;-62
2023/04/08 00:13:37;;;;;;;;;;;;;;;;;;5070835;28;19965;-63
2023/04/08 00:16:03;;;;;;;;;;;;;;;;;;5076736;28;19932;-63
2023/04/08 00:18:29;;;;;;;;;;;;;;;;;;5069248;28;19951;-63
2023/04/08 00:20:56;;;;;;;;;;;;;;;;;;5070588;28;19924;-63
2023/04/08 00:23:22;;;;;;;;;;;;;;;;;;5070326;28;19924;-61
2023/04/08 00:25:48;;;;;;;;;;;;;;;;;;5069027;28;19920;-61
2023/04/08 00:28:14;;;;;;;;;;;;;;;;;;5068862;28;19927;-60
2023/04/08 00:30:40;;;;;;;;;;;;;;;;;;5069348;28;20725;-61
2023/04/08 00:33:07;;;;;;;;;;;;;;;;;;5074385;28;19924;-61
2023/04/08 00:35:33;;;;;;;;;;;;;;;;;;5073257;28;19922;-61
2023/04/08 00:38:00;;;;;;;;;;;;;;;;;;5073232;28;19935;-61
2023/04/08 00:40:26;;;;;;;;;;;;;;;;;;5074012;28;19928;-61
2023/04/08 00:42:52;;;;;;;;;;;;;;;;;;5071848;28;19933;-62
2023/04/08 00:45:18;;;;;;;;;;;;;;;;;;5072076;28;19920;-62
2023/04/08 00:47:45;;;;;;;;;;;;;;;;;;5074338;28;19948;-62
2023/04/08 00:50:11;;;;;;;;;;;;;;;;;;5072974;28;19960;-62
2023/04/08 00:52:37;;;;;;;;;;;;;;;;;;5072637;28;19955;-62
2023/04/08 00:55:03;;;;;;;;;;;;;;;;;;5072046;28;19983;-61
2023/04/08 00:57:29;;;;;;;;;;;;;;;;;;5074415;28;19933;-62
2023/04/08 00:59:55;;;;;;;;;;;;;;;;;;5072552;28;20011;-61
2023/04/08 01:02:21;;;;;;;;;;;;;;;;;;5072116;28;19920;-62
2023/04/08 01:04:46;;;;;;;;;;;;;;;;;;5092635;28;19969;-62
2023/04/08 01:07:12;;;;;;;;;;;;;;;;;;5113280;28;19968;-61
2023/04/08 01:09:38;;;;;;;;;;;;;;;;;;5095093;28;19928;-62
2023/04/08 01:12:04;;;;;;;;;;;;;;;;;;5094384;28;20387;-62
2023/04/08 01:14:30;;;;;;;;;;;;;;;;;;5095228;28;20001;-62
2023/04/08 01:16:56;;;;;;;;;;;;;;;;;;5091554;28;20040;-62
2023/04/08 01:19:22;;;;;;;;;;;;;;;;;;5100446;28;19923;-62
2023/04/08 01:21:48;;;;;;;;;;;;;;;;;;5095452;28;19977;-62
2023/04/08 01:24:14;;;;;;;;;;;;;;;;;;5099499;28;20377;-62
2023/04/08 01:26:40;;;;;;;;;;;;;;;;;;5093886;28;19924;-61
2023/04/08 01:29:06;;;;;;;;;;;;;;;;;;5111175;28;20328;-62
2023/04/08 01:31:32;;;;;;;;;;;;;;;;;;5111866;28;19920;-61
2023/04/08 01:33:57;;;;;;;;;;;;;;;;;;5109779;28;19920;-61
2023/04/08 01:36:23;;;;;;;;;;;;;;;;;;5107819;28;19924;-62
2023/04/08 01:38:49;;;;;;;;;;;;;;;;;;5108017;28;19927;-62
2023/04/08 01:41:15;;;;;;;;;;;;;;;;;;5114873;28;20406;-62
2023/04/08 01:43:41;;;;;;;;;;;;;;;;;;5096135;28;19941;-61
2023/04/08 01:46:07;;;;;;;;;;;;;;;;;;5101611;28;19924;-65
2023/04/08 01:48:33;;;;;;;;;;;;;;;;;;5102288;28;19934;-65
2023/04/08 01:50:59;;;;;;;;;;;;;;;;;;5098653;28;19927;-65
2023/04/08 01:53:25;;;;;;;;;;;;;;;;;;5094894;28;19924;-65
2023/04/08 01:55:51;;;;;;;;;;;;;;;;;;5094949;28;20368;-61
2023/04/08 01:58:17;;;;;;;;;;;;;;;;;;5093467;28;19965;-61
2023/04/08 02:00:42;;;;;;;;;;;;;;;;;;5100778;28;20407;-62
2023/04/08 02:03:08;;;;;;;;;;;;;;;;;;5093972;28;19971;-62
2023/04/08 02:05:34;;;;;;;;;;;;;;;;;;5093696;28;19928;-62
2023/04/08 02:08:00;;;;;;;;;;;;;;;;;;5110749;28;20370;-62
2023/04/08 02:10:26;;;;;;;;;;;;;;;;;;5090516;28;20348;-63
2023/04/08 02:12:52;;;;;;;;;;;;;;;;;;5090551;28;20454;-62
2023/04/08 02:15:18;;;;;;;;;;;;;;;;;;5109935;28;19923;-62
2023/04/08 02:17:44;;;;;;;;;;;;;;;;;;5095179;28;19962;-61
2023/04/08 02:20:10;;;;;;;;;;;;;;;;;;5093407;28;19924;-61
2023/04/08 02:22:36;;;;;;;;;;;;;;;;;;5091708;28;19972;-62
2023/04/08 02:25:02;;;;;;;;;;;;;;;;;;5105151;28;19994;-62
2023/04/08 02:27:28;;;;;;;;;;;;;;;;;;5092405;28;20344;-63
2023/04/08 02:29:54;;;;;;;;;;;;;;;;;;5095522;28;19921;-62
2023/04/08 02:32:20;;;;;;;;;;;;;;;;;;5086016;28;20045;-62
2023/04/08 02:34:46;;;;;;;;;;;;;;;;;;5093615;28;19927;-61
2023/04/08 02:37:12;;;;;;;;;;;;;;;;;;5096051;28;19919;-62
2023/04/08 02:39:38;;;;;;;;;;;;;;;;;;5111677;28;20368;-61
2023/04/08 02:42:04;;;;;;;;;;;;;;;;;;5112066;28;19967;-61
2023/04/08 02:44:30;;;;;;;;;;;;;;;;;;5094115;28;20523;-61
2023/04/08 02:46:56;;;;;;;;;;;;;;;;;;5103120;28;19920;-62
2023/04/08 02:49:22;;;;;;;;;;;;;;;;;;5092554;28;19930;-61
2023/04/08 02:51:48;;;;;;;;;;;;;;;;;;5084258;28;19928;-61
2023/04/08 02:54:14;;;;;;;;;;;;;;;;;;5076917;28;19920;-62
2023/04/08 02:56:40;;;;;;;;;;;;;;;;;;5106123;28;20437;-62
2023/04/08 02:59:06;;;;;;;;;;;;;;;;;;5111578;28;19935;-63
2023/04/08 03:01:32;;;;;;;;;;;;;;;;;;5101708;28;19924;-62
2023/04/08 03:03:58;;;;;;;;;;;;;;;;;;5099386;22;20443;-62
2023/04/08 03:06:24;;;;;;;;;;;;;;;;;;5052338;28;19928;-62
2023/04/08 03:08:50;;;;;;;;;;;;;;;;;;5069120;28;19924;-62
2023/04/08 03:11:16;;;;;;;;;;;;;;;;;;5070956;28;19920;-62
2023/04/08 03:13:42;;;;;;;;;;;;;;;;;;5050737;28;20368;-62
2023/04/08 03:16:08;;;;;;;;;;;;;;;;;;5069657;28;20330;-62
2023/04/08 03:18:34;;;;;;;;;;;;;;;;;;5053755;28;19940;-62
2023/04/08 03:21:02;;;;;;;;;;;;;;;;;;5065735;28;20312;-62
2023/04/08 03:23:27;;;;;;;;;;;;;;;;;;5067364;28;20393;-62
2023/04/08 03:25:53;;;;;;;;;;;;;;;;;;5070131;28;19952;-61
2023/04/08 03:28:19;;;;;;;;;;;;;;;;;;5053021;28;19924;-62
2023/04/08 03:30:45;;;;;;;;;;;;;;;;;;5069187;28;20409;-63
2023/04/08 03:33:11;;;;;;;;;;;;;;;;;;5070638;28;19974;-62
2023/04/08 03:35:37;;;;;;;;;;;;;;;;;;5052529;28;20344;-62
2023/04/08 03:38:03;;;;;;;;;;;;;;;;;;5070229;28;19983;-62
2023/04/08 03:40:29;;;;;;;;;;;;;;;;;;5051548;28;19979;-61
2023/04/08 03:42:55;;;;;;;;;;;;;;;;;;5050859;28;19932;-63
2023/04/08 03:45:21;;;;;;;;;;;;;;;;;;5068564;28;19920;-62
2023/04/08 03:47:47;;;;;;;;;;;;;;;;;;5051610;28;20335;-63
2023/04/08 03:50:13;;;;;;;;;;;;;;;;;;5068318;28;19939;-61
2023/04/08 03:52:39;;;;;;;;;;;;;;;;;;5068785;28;20342;-61
2023/04/08 03:55:05;;;;;;;;;;;;;;;;;;5034192;28;20007;-61
2023/04/08 03:57:30;;;;;;;;;;;;;;;;;;5052717;28;19925;-62
2023/04/08 03:59:56;;;;;;;;;;;;;;;;;;5051202;28;19935;-62
2023/04/08 04:02:22;;;;;;;;;;;;;;;;;;5051311;28;19928;-61
2023/04/08 04:04:48;;;;;;;;;;;;;;;;;;5069935;28;20389;-61
2023/04/08 04:07:14;;;;;;;;;;;;;;;;;;5070307;28;19998;-61
2023/04/08 04:09:40;;;;;;;;;;;;;;;;;;5055853;28;19981;-62
2023/04/08 04:12:06;;;;;;;;;;;;;;;;;;5071508;28;19928;-62
2023/04/08 04:14:32;;;;;;;;;;;;;;;;;;5074098;28;19973;-62
2023/04/08 04:16:58;;;;;;;;;;;;;;;;;;5054071;28;19936;-62
2023/04/08 04:19:23;;;;;;;;;;;;;;;;;;5074697;28;19931;-62
2023/04/08 04:21:50;;;;;;;;;;;;;;;;;;5069529;28;19988;-63
2023/04/08 04:24:16;;;;;;;;;;;;;;;;;;5036986;28;19927;-63
2023/04/08 04:26:41;;;;;;;;;;;;;;;;;;5073261;28;20333;-61
2023/04/08 04:29:07;;;;;;;;;;;;;;;;;;5065320;28;20446;-61
2023/04/08 04:31:33;;;;;;;;;;;;;;;;;;5055723;28;20019;-62
2023/04/08 04:33:59;;;;;;;;;;;;;;;;;;5074272;28;19924;-62
2023/04/08 04:36:26;;;;;;;;;;;;;;;;;;5055203;28;19931;-62
2023/04/08 04:38:52;;;;;;;;;;;;;;;;;;5071260;28;19920;-62
2023/04/08 04:41:18;;;;;;;;;;;;;;;;;;5072345;28;19935;-62
2023/04/08 04:43:43;;;;;;;;;;;;;;;;;;5054216;28;20293;-62
2023/04/08 04:46:09;;;;;;;;;;;;;;;;;;5073126;28;19929;-62
2023/04/08 04:48:35;;;;;;;;;;;;;;;;;;5044576;28;20015;-62
2023/04/08 04:51:06;;;;;;;;;;;;;;;;;;5072942;28;19925;-63
2023/04/08 04:53:32;;;;;;;;;;;;;;;;;;5072042;28;19943;-62
2023/04/08 04:56:00;;;;;;;;;;;;;;;;;;5073684;28;19920;-62
2023/04/08 04:58:25;;;;;;;;;;;;;;;;;;5052386;28;19936;-60
2023/04/08 05:00:51;;;;;;;;;;;;;;;;;;5070095;28;19924;-60
2023/04/08 05:03:17;;;;;;;;;;;;;;;;;;5072823;28;20365;-61
2023/04/08 05:05:43;;;;;;;;;;;;;;;;;;5072553;28;19929;-61
2023/04/08 05:08:09;;;;;;;;;;;;;;;;;;5073638;28;20405;-61
2023/04/08 05:10:35;;;;;;;;;;;;;;;;;;5054173;28;19927;-62
2023/04/08 05:13:01;;;;;;;;;;;;;;;;;;5071697;28;19932;-62
2023/04/08 05:15:27;;;;;;;;;;;;;;;;;;5072506;28;19920;-62
2023/04/08 05:17:53;;;;;;;;;;;;;;;;;;5074087;28;19927;-62
2023/04/08 05:20:19;;;;;;;;;;;;;;;;;;5074167;28;19928;-62
2023/04/08 05:22:45;;;;;;;;;;;;;;;;;;5074408;28;20381;-62
2023/04/08 05:25:10;;;;;;;;;;;;;;;;;;5074406;28;19920;-62
2023/04/08 05:27:37;;;;;;;;;;;;;;;;;;5064453;28;19925;-62
2023/04/08 05:30:03;;;;;;;;;;;;;;;;;;5054169;28;20028;-62
2023/04/08 05:32:28;;;;;;;;;;;;;;;;;;5063036;28;20385;-61
2023/04/08 05:34:54;;;;;;;;;;;;;;;;;;5074417;28;19927;-61
2023/04/08 05:37:20;;;;;;;;;;;;;;;;;;5074206;28;19943;-61
2023/04/08 05:39:46;;;;;;;;;;;;;;;;;;5055991;28;19935;-61
2023/04/08 05:42:12;;;;;;;;;;;;;;;;;;5056176;28;19924;-62
2023/04/08 05:44:40;;;;;;;;;;;;;;;;;;5073076;28;19921;-62
2023/04/08 05:47:06;;;;;;;;;;;;;;;;;;5074026;28;20265;-61
2023/04/08 05:49:32;;;;;;;;;;;;;;;;;;5055780;28;20007;-61
2023/04/08 05:51:57;;;;;;;;;;;;;;;;;;5055797;28;19927;-62
2023/04/08 05:54:23;;;;;;;;;;;;;;;;;;5073749;28;20271;-61
2023/04/08 05:56:49;;;;;;;;;;;;;;;;;;5070853;28;19932;-62
2023/04/08 05:59:15;;;;;;;;;;;;;;;;;;5055805;28;19928;-65
2023/04/08 06:01:41;;;;;;;;;;;;;;;;;;5059414;28;19924;-65
2023/04/08 06:04:07;;;;;;;;;;;;;;;;;;5065069;28;19929;-64
2023/04/08 06:06:33;;;;;;;;;;;;;;;;;;5073674;28;19948;-65
2023/04/08 06:08:59;;;;;;;;;;;;;;;;;;5073382;28;19920;-65
2023/04/08 06:11:25;;;;;;;;;;;;;;;;;;5073748;28;19939;-66
2023/04/08 06:13:51;;;;;;;;;;;;;;;;;;5073631;28;19925;-65
2023/04/08 06:16:17;;;;;;;;;;;;;;;;;;5060615;28;19928;-65
2023/04/08 06:18:43;;;;;;;;;;;;;;;;;;5053569;28;20289;-65
2023/04/08 06:21:09;;;;;;;;;;;;;;;;;;5052492;28;19947;-65
2023/04/08 06:23:35;;;;;;;;;;;;;;;;;;5072976;28;19931;-65
2023/04/08 06:26:01;;;;;;;;;;;;;;;;;;5055281;28;19927;-65
2023/04/08 06:28:27;;;;;;;;;;;;;;;;;;5071968;28;20421;-65
2023/04/08 06:30:52;;;;;;;;;;;;;;;;;;5072267;28;19920;-66
2023/04/08 06:33:18;;;;;;;;;;;;;;;;;;5059875;28;20011;-66
2023/04/08 06:35:44;;;;;;;;;;;;;;;;;;5053152;28;20007;-66
2023/04/08 06:38:10;;;;;;;;;;;;;;;;;;5052974;28;19921;-65
2023/04/08 06:40:36;;;;;;;;;;;;;;;;;;5059746;28;20027;-66
2023/04/08 06:43:02;;;;;;;;;;;;;;;;;;5055035;28;20003;-65
2023/04/08 06:45:28;;;;;;;;;;;;;;;;;;5072977;28;19926;-65
2023/04/08 06:47:55;;;;;;;;;;;;;;;;;;5062173;28;19921;-66
2023/04/08 06:50:21;;;;;;;;;;;;;;;;;;5052664;28;19944;-66
2023/04/08 06:52:47;;;;;;;;;;;;;;;;;;5047337;28;20337;-66
2023/04/08 06:55:13;;;;;;;;;;;;;;;;;;5070968;28;19920;-65
2023/04/08 06:57:39;;;;;;;;;;;;;;;;;;5072430;28;19947;-65
2023/04/08 07:00:05;;;;;;;;;;;;;;;;;;5072478;28;20273;-65
2023/04/08 07:02:31;;;;;;;;;;;;;;;;;;5072572;28;19980;-66
2023/04/08 07:04:57;;;;;;;;;;;;;;;;;;5072223;28;19972;-65
2023/04/08 07:07:23;;;;;;;;;;;;;;;;;;5054213;28;20608;-66
2023/04/08 07:09:49;;;;;;;;;;;;;;;;;;5071516;28;19965;-66
2023/04/08 07:12:15;;;;;;;;;;;;;;;;;;5067041;28;19963;-65
2023/04/08 07:14:41;;;;;;;;;;;;;;;;;;5046502;28;19960;-66
2023/04/08 07:17:07;;;;;;;;;;;;;;;;;;5071924;28;19999;-66
2023/04/08 07:19:33;;;;;;;;;;;;;;;;;;5070505;28;19930;-66
2023/04/08 07:21:59;;;;;;;;;;;;;;;;;;5052557;28;19928;-67
2023/04/08 07:24:25;;;;;;;;;;;;;;;;;;5070797;28;20269;-66
2023/04/08 07:26:51;;;;;;;;;;;;;;;;;;5069003;28;19924;-65
2023/04/08 07:29:17;;;;;;;;;;;;;;;;;;5067522;28;19997;-62
2023/04/08 07:31:43;;;;;;;;;;;;;;;;;;5052529;28;19924;-61
2023/04/08 07:34:09;;;;;;;;;;;;;;;;;;5071584;28;20332;-61
2023/04/08 07:36:35;;;;;;;;;;;;;;;;;;5053467;28;19927;-63
2023/04/08 07:39:02;;;;;;;;;;;;;;;;;;5071246;28;19928;-63
2023/04/08 07:41:28;;;;;;;;;;;;;;;;;;5051390;28;19925;-62
2023/04/08 07:43:54;;;;;;;;;;;;;;;;;;5071482;28;19926;-62
2023/04/08 07:46:20;;;;;;;;;;;;;;;;;;5053334;28;20020;-63
2023/04/08 07:48:46;;;;;;;;;;;;;;;;;;5054197;28;19990;-62
2023/04/08 07:51:12;;;;;;;;;;;;;;;;;;5054101;28;19920;-62
2023/04/08 07:53:39;;;;;;;;;;;;;;;;;;5072236;28;19960;-63
2023/04/08 07:56:04;;;;;;;;;;;;;;;;;;5052672;28;19963;-63
2023/04/08 07:58:31;;;;;;;;;;;;;;;;;;5048608;28;20433;-66
2023/04/08 08:00:57;;;;;;;;;;;;;;;;;;5067703;28;20015;-66
2023/04/08 08:03:23;;;;;;;;;;;;;;;;;;5071001;28;19920;-67
2023/04/08 08:05:49;;;;;;;;;;;;;;;;;;5070219;28;19978;-66
2023/04/08 08:08:15;;;;;;;;;;;;;;;;;;5067516;28;20616;-67
2023/04/08 08:10:41;;;;;;;;;;;;;;;;;;5066849;28;19924;-66
2023/04/08 08:13:07;;;;;;;;;;;;;;;;;;5070086;28;19920;-66
2023/04/08 08:15:33;;;;;;;;;;;;;;;;;;5058038;28;19924;-66
2023/04/08 08:17:59;;;;;;;;;;;;;;;;;;5070303;28;19940;-66
2023/04/08 08:20:25;;;;;;;;;;;;;;;;;;5052279;28;20389;-66
2023/04/08 08:22:50;;;;;;;;;;;;;;;;;;5052020;28;19920;-67
2023/04/08 08:25:16;;;;;;;;;;;;;;;;;;5070102;28;20367;-65
2023/04/08 08:27:42;;;;;;;;;;;;;;;;;;5054189;28;19924;-65
2023/04/08 08:30:08;;;;;;;;;;;;;;;;;;5069708;28;20316;-65
2023/04/08 08:32:34;;;;;;;;;;;;;;;;;;5053046;28;20015;-65
2023/04/08 08:35:00;;;;;;;;;;;;;;;;;;5069511;28;19928;-65
2023/04/08 08:37:26;;;;;;;;;;;;;;;;;;5068962;28;19998;-65
2023/04/08 08:39:52;;;;;;;;;;;;;;;;;;5051370;28;19932;-66
2023/04/08 08:42:18;;;;;;;;;;;;;;;;;;5046714;28;19921;-66
2023/04/08 08:44:44;;;;;;;;;;;;;;;;;;5059811;28;19927;-67
2023/04/08 08:47:10;;;;;;;;;;;;;;;;;;5068138;28;19951;-66
2023/04/08 08:49:36;;;;;;;;;;;;;;;;;;5069929;28;20357;-66
2023/04/08 08:52:02;;;;;;;;;;;;;;;;;;5050056;28;19928;-66
2023/04/08 08:54:28;;;;;;;;;;;;;;;;;;5062112;28;19943;-66
2023/04/08 08:56:54;;;;;;;;;;;;;;;;;;5072922;28;19924;-67
2023/04/08 08:59:20;;;;;;;;;;;;;;;;;;5073878;28;19924;-66
2023/04/08 09:01:46;;;;;;;;;;;;;;;;;;5053392;28;19932;-66
2023/04/08 09:04:12;;;;;;;;;;;;;;;;;;5070934;28;19924;-65
2023/04/08 09:06:38;;;;;;;;;;;;;;;;;;5073703;28;19973;-61
2023/04/08 09:09:10;;;;;;;;;;;;;;;;;;5072052;28;19924;-61
2023/04/08 09:11:37;;;;;;;;;;;;;;;;;;5065300;28;19920;-61
2023/04/08 09:14:03;;;;;;;;;;;;;;;;;;5074535;28;20320;-61
2023/04/08 09:16:29;;;;;;;;;;;;;;;;;;5054703;28;19925;-61
2023/04/08 09:18:55;;;;;;;;;;;;;;;;;;5036498;28;19927;-61
2023/04/08 09:21:21;;;;;;;;;;;;;;;;;;5063758;28;19931;-61
2023/04/08 09:23:47;;;;;;;;;;;;;;;;;;5072469;28;20319;-62
2023/04/08 09:26:13;;;;;;;;;;;;;;;;;;5058527;28;19928;-62
2023/04/08 09:28:39;;;;;;;;;;;;;;;;;;5038000;28;19931;-62
2023/04/08 09:31:05;;;;;;;;;;;;;;;;;;5073092;28;19927;-62
2023/04/08 09:33:30;;;;;;;;;;;;;;;;;;5073319;28;20320;-63
2023/04/08 09:35:57;;;;;;;;;;;;;;;;;;5071614;28;19927;-62
2023/04/08 09:38:23;;;;;;;;;;;;;;;;;;5071015;28;19924;-63
2023/04/08 09:40:49;;;;;;;;;;;;;;;;;;5062104;28;19925;-63
2023/04/08 09:43:15;;;;;;;;;;;;;;;;;;5066578;28;19959;-63
2023/04/08 09:45:41;;;;;;;;;;;;;;;;;;5038219;28;20377;-64
2023/04/08 09:48:07;;;;;;;;;;;;;;;;;;5054426;28;19921;-63
2023/04/08 09:50:33;;;;;;;;;;;;;;;;;;5071926;28;20022;-63
2023/04/08 09:52:59;;;;;;;;;;;;;;;;;;5073374;28;19931;-63
2023/04/08 09:55:25;;;;;;;;;;;;;;;;;;5074266;28;19925;-64
2023/04/08 09:57:54;;;;;;;;;;;;;;;;;;5072037;28;19973;-62
2023/04/08 10:00:21;;;;;;;;;;;;;;;;;;5066865;28;19929;-62
2023/04/08 10:02:47;;;;;;;;;;;;;;;;;;5071119;28;19960;-62
2023/04/08 10:05:13;;;;;;;;;;;;;;;;;;5037558;28;20339;-62
2023/04/08 10:07:39;;;;;;;;;;;;;;;;;;5068428;28;19924;-62
2023/04/08 10:10:05;;;;;;;;;;;;;;;;;;5070400;28;20380;-66
2023/04/08 10:12:31;;;;;;;;;;;;;;;;;;5072528;28;20342;-66
2023/04/08 10:14:57;;;;;;;;;;;;;;;;;;5070169;28;20027;-66
2023/04/08 10:17:23;;;;;;;;;;;;;;;;;;5072342;28;19939;-66
2023/04/08 10:19:49;;;;;;;;;;;;;;;;;;5065929;28;19955;-65
2023/04/08 10:22:15;;;;;;;;;;;;;;;;;;5056418;28;19926;-66
2023/04/08 10:24:41;;;;;;;;;;;;;;;;;;5071361;28;19921;-67
2023/04/08 10:27:10;;;;;;;;;;;;;;;;;;5073249;28;20273;-66
2023/04/08 10:29:36;;;;;;;;;;;;;;;;;;5070373;28;19943;-66
2023/04/08 10:32:02;;;;;;;;;;;;;;;;;;5071188;28;20388;-66
2023/04/08 10:34:28;;;;;;;;;;;;;;;;;;5042659;28;19925;-66
2023/04/08 10:36:54;;;;;;;;;;;;;;;;;;5065300;28;19942;-66
2023/04/08 10:39:20;;;;;;;;;;;;;;;;;;5072177;28;20044;-65
2023/04/08 10:41:46;;;;;;;;;;;;;;;;;;5050860;28;20439;-66
2023/04/08 10:44:12;;;;;;;;;;;;;;;;;;5069511;28;20015;-66
2023/04/08 10:46:38;;;;;;;;;;;;;;;;;;5043295;28;19960;-66
2023/04/08 10:49:04;;;;;;;;;;;;;;;;;;5070539;28;19927;-66
2023/04/08 10:51:34;;;;;;;;;;;;;;;;;;5048449;28;20471;-66
2023/04/08 10:54:00;;;;;;;;;;;;;;;;;;5068535;28;20440;-66
2023/04/08 10:56:27;;;;;;;;;;;;;;;;;;5070546;28;19928;-65
2023/04/08 10:58:55;;;;;;;;;;;;;;;;;;5050561;28;19974;-65
2023/04/08 11:01:21;;;;;;;;;;;;;;;;;;5071506;28;20315;-65
2023/04/08 11:03:47;;;;;;;;;;;;;;;;;;5071022;28;20259;-65
2023/04/08 11:06:14;;;;;;;;;;;;;;;;;;5069894;28;21306;-65
2023/04/08 11:08:41;;;;;;;;;;;;;;;;;;5072315;28;20015;-65
2023/04/08 11:11:10;;;;;;;;;;;;;;;;;;5070124;28;19931;-65
2023/04/08 11:13:36;;;;;;;;;;;;;;;;;;5050461;28;19928;-66
2023/04/08 11:16:03;;;;;;;;;;;;;;;;;;5050988;28;19924;-66
2023/04/08 11:18:28;;;;;;;;;;;;;;;;;;5070716;28;19924;-66
2023/04/08 11:20:55;;;;;;;;;;;;;;;;;;5071760;28;19924;-66
2023/04/08 11:23:21;;;;;;;;;;;;;;;;;;5070269;28;20290;-65
2023/04/08 11:25:47;;;;;;;;;;;;;;;;;;5053355;28;19951;-63
2023/04/08 11:28:13;;;;;;;;;;;;;;;;;;5055740;28;19955;-63
2023/04/08 11:30:39;;;;;;;;;;;;;;;;;;5069386;28;19927;-63
2023/04/08 11:33:05;;;;;;;;;;;;;;;;;;5067180;28;19924;-63
2023/04/08 11:35:31;;;;;;;;;;;;;;;;;;5072269;28;19954;-63
2023/04/08 11:37:57;;;;;;;;;;;;;;;;;;5071822;28;19921;-64
2023/04/08 11:40:23;;;;;;;;;;;;;;;;;;5071338;28;19931;-63
2023/04/08 11:42:49;;;;;;;;;;;;;;;;;;5036671;28;19985;-63
2023/04/08 11:45:15;;;;;;;;;;;;;;;;;;5069853;28;19920;-62
2023/04/08 11:47:41;;;;;;;;;;;;;;;;;;5072105;28;20308;-62
2023/04/08 11:50:07;;;;;;;;;;;;;;;;;;5071858;28;19924;-62
2023/04/08 11:52:33;;;;;;;;;;;;;;;;;;5053914;28;19932;-62
2023/04/08 11:54:59;;;;;;;;;;;;;;;;;;5071724;28;19920;-62
2023/04/08 11:57:25;;;;;;;;;;;;;;;;;;5071929;28;19970;-62
2023/04/08 11:59:51;;;;;;;;;;;;;;;;;;5053673;28;20417;-62
2023/04/08 12:02:17;;;;;;;;;;;;;;;;;;5052393;28;19931;-62
2023/04/08 12:04:43;;;;;;;;;;;;;;;;;;5071546;28;19924;-62
2023/04/08 12:07:09;;;;;;;;;;;;;;;;;;5054044;28;19966;-62
2023/04/08 12:09:35;;;;;;;;;;;;;;;;;;5071911;28;19921;-62
2023/04/08 12:12:02;;;;;;;;;;;;;;;;;;5072174;28;19924;-62
2023/04/08 12:14:28;;;;;;;;;;;;;;;;;;5071670;28;19951;-62
2023/04/08 12:16:53;;;;;;;;;;;;;;;;;;5052396;28;20323;-62
2023/04/08 12:19:19;;;;;;;;;;;;;;;;;;5050495;28;19929;-62
2023/04/08 12:21:45;;;;;;;;;;;;;;;;;;5051710;28;19986;-62
2023/04/08 12:24:11;;;;;;;;;;;;;;;;;;5069785;28;19947;-62
2023/04/08 12:26:37;;;;;;;;;;;;;;;;;;5069757;28;19977;-62
2023/04/08 12:29:03;;;;;;;;;;;;;;;;;;5070988;28;19965;-62
2023/04/08 12:31:29;;;;;;;;;;;;;;;;;;5075413;28;19973;-62
2023/04/08 12:33:55;;;;;;;;;;;;;;;;;;5057296;28;19925;-62
2023/04/08 12:36:21;;;;;;;;;;;;;;;;;;5075358;28;19920;-63
2023/04/08 12:38:47;;;;;;;;;;;;;;;;;;5058459;28;19921;-62
2023/04/08 12:41:13;;;;;;;;;;;;;;;;;;5074856;28;19932;-63
2023/04/08 12:43:39;;;;;;;;;;;;;;;;;;5075465;28;20645;-63
2023/04/08 12:46:05;;;;;;;;;;;;;;;;;;5075185;28;19928;-63
2023/04/08 12:48:31;;;;;;;;;;;;;;;;;;5056141;28;19943;-63
2023/04/08 12:50:58;;;;;;;;;;;;;;;;;;5074912;28;19924;-66
2023/04/08 12:53:23;;;;;;;;;;;;;;;;;;5074951;28;19925;-66
2023/04/08 12:55:50;;;;;;;;;;;;;;;;;;5056831;28;20022;-67
2023/04/08 12:58:16;;;;;;;;;;;;;;;;;;5075115;28;19924;-67
2023/04/08 13:00:45;;;;;;;;;;;;;;;;;;5074535;28;19932;-67
2023/04/08 13:03:11;;;;;;;;;;;;;;;;;;5074776;28;19952;-66
2023/04/08 13:05:37;;;;;;;;;;;;;;;;;;5054178;28;19960;-66
2023/04/08 13:08:03;;;;;;;;;;;;;;;;;;5054827;28;19955;-62
2023/04/08 13:10:29;;;;;;;;;;;;;;;;;;5054333;28;19921;-62
2023/04/08 13:12:55;;;;;;;;;;;;;;;;;;5019955;28;19928;-62
2023/04/08 13:15:21;;;;;;;;;;;;;;;;;;5054263;28;19925;-62
2023/04/08 13:17:47;;;;;;;;;;;;;;;;;;5054470;28;19928;-63
2023/04/08 13:20:13;;;;;;;;;;;;;;;;;;5036125;28;20369;-63
2023/04/08 13:22:40;;;;;;;;;;;;;;;;;;5053747;28;19932;-63
2023/04/08 13:25:06;;;;;;;;;;;;;;;;;;5054472;28;19971;-63
2023/04/08 13:27:32;;;;;;;;;;;;;;;;;;5054271;28;19920;-65
2023/04/08 13:29:58;;;;;;;;;;;;;;;;;;5054648;28;19925;-62
2023/04/08 13:32:24;;;;;;;;;;;;;;;;;;5054682;28;19921;-63
2023/04/08 13:34:50;;;;;;;;;;;;;;;;;;5036552;28;20397;-63
2023/04/08 13:37:15;;;;;;;;;;;;;;;;;;5054836;28;19968;-63
2023/04/08 13:39:41;;;;;;;;;;;;;;;;;;5053799;28;20019;-63
2023/04/08 13:42:07;;;;;;;;;;;;;;;;;;5036399;28;20332;-63
2023/04/08 13:44:33;;;;;;;;;;;;;;;;;;5054454;28;19995;-66
2023/04/08 13:46:59;;;;;;;;;;;;;;;;;;5035988;28;20332;-66
2023/04/08 13:49:26;;;;;;;;;;;;;;;;;;5053817;28;19924;-67
2023/04/08 13:51:52;;;;;;;;;;;;;;;;;;5053754;28;20480;-66
2023/04/08 13:54:18;;;;;;;;;;;;;;;;;;5053924;28;19991;-67
2023/04/08 13:56:44;;;;;;;;;;;;;;;;;;5061884;28;19932;-67
2023/04/08 13:59:10;;;;;;;;;;;;;;;;;;5059999;28;19998;-67
2023/04/08 14:01:36;;;;;;;;;;;;;;;;;;5053805;28;19932;-63
2023/04/08 14:04:02;;;;;;;;;;;;;;;;;;5053808;28;19936;-62
2023/04/08 14:06:28;;;;;;;;;;;;;;;;;;5053740;28;20000;-62
2023/04/08 14:08:54;;;;;;;;;;;;;;;;;;5035606;28;19921;-62
2023/04/08 14:11:20;;;;;;;;;;;;;;;;;;5053731;28;19931;-62
2023/04/08 14:13:46;;;;;;;;;;;;;;;;;;5034901;28;19924;-62
2023/04/08 14:16:12;;;;;;;;;;;;;;;;;;5053675;28;19921;-62
2023/04/08 14:18:38;;;;;;;;;;;;;;;;;;5053539;28;19920;-62
2023/04/08 14:21:06;;;;;;;;;;;;;;;;;;5035518;28;19925;-63
2023/04/08 14:23:32;;;;;;;;;;;;;;;;;;5035244;28;19921;-62
2023/04/08 14:26:00;;;;;;;;;;;;;;;;;;5053448;28;20388;-62
2023/04/08 14:28:26;;;;;;;;;;;;;;;;;;5034927;28;20294;-64
2023/04/08 14:30:52;;;;;;;;;;;;;;;;;;5055270;28;19920;-63
2023/04/08 14:33:17;;;;;;;;;;;;;;;;;;5073166;28;19951;-62
2023/04/08 14:35:43;;;;;;;;;;;;;;;;;;5073255;28;19921;-62
2023/04/08 14:38:09;;;;;;;;;;;;;;;;;;5054858;28;19967;-62
2023/04/08 14:40:35;;;;;;;;;;;;;;;;;;5054947;28;20382;-62
2023/04/08 14:43:01;;;;;;;;;;;;;;;;;;5054652;28;19920;-62
2023/04/08 14:45:27;;;;;;;;;;;;;;;;;;5054643;28;19920;-62
2023/04/08 14:47:53;;;;;;;;;;;;;;;;;;5059167;28;19925;-62
2023/04/08 14:50:19;;;;;;;;;;;;;;;;;;5018826;28;19975;-62
2023/04/08 14:52:47;;;;;;;;;;;;;;;;;;5060493;28;20259;-62
2023/04/08 14:55:13;;;;;;;;;;;;;;;;;;5061790;28;19956;-62
2023/04/08 14:57:39;;;;;;;;;;;;;;;;;;5071233;28;20404;-62
2023/04/08 15:00:05;;;;;;;;;;;;;;;;;;5048851;28;19971;-62
2023/04/08 15:02:30;;;;;;;;;;;;;;;;;;5068000;28;19935;-62
2023/04/08 15:04:56;;;;;;;;;;;;;;;;;;5054136;28;20408;-62
2023/04/08 15:07:22;;;;;;;;;;;;;;;;;;5053386;28;19921;-62
2023/04/08 15:09:48;;;;;;;;;;;;;;;;;;5070836;28;19924;-62
2023/04/08 15:12:14;;;;;;;;;;;;;;;;;;5043941;28;19927;-62
2023/04/08 15:14:40;;;;;;;;;;;;;;;;;;5069607;28;20023;-62
2023/04/08 15:17:06;;;;;;;;;;;;;;;;;;5052591;28;20340;-62
2023/04/08 15:19:32;;;;;;;;;;;;;;;;;;5076541;22;19934;-62
2023/04/08 15:21:58;;;;;;;;;;;;;;;;;;5051114;28;19958;-62
2023/04/08 15:24:24;;;;;;;;;;;;;;;;;;5073212;28;19958;-62
2023/04/08 15:26:50;;;;;;;;;;;;;;;;;;5053815;28;19921;-62
2023/04/08 15:29:16;;;;;;;;;;;;;;;;;;5052825;28;19928;-62
2023/04/08 15:31:41;;;;;;;;;;;;;;;;;;5070696;28;19931;-62
2023/04/08 15:34:07;;;;;;;;;;;;;;;;;;5069788;28;19967;-62
2023/04/08 15:36:36;;;;;;;;;;;;;;;;;;5054054;28;20304;-62
2023/04/08 15:39:02;;;;;;;;;;;;;;;;;;5070921;28;19920;-62
2023/04/08 15:41:28;;;;;;;;;;;;;;;;;;5051564;28;19928;-62
2023/04/08 15:43:55;;;;;;;;;;;;;;;;;;5064951;28;20281;-62
2023/04/08 15:46:20;;;;;;;;;;;;;;;;;;5068972;28;20325;-62
2023/04/08 15:48:46;;;;;;;;;;;;;;;;;;5070282;28;19924;-62
2023/04/08 15:51:12;;;;;;;;;;;;;;;;;;5066620;28;19927;-62
2023/04/08 15:53:38;;;;;;;;;;;;;;;;;;5051337;28;20593;-62
2023/04/08 15:56:04;;;;;;;;;;;;;;;;;;5069541;28;20290;-62
2023/04/08 15:58:30;;;;;;;;;;;;;;;;;;5051293;28;19924;-62
2023/04/08 16:00:56;;;;;;;;;;;;;;;;;;5050140;28;19929;-62
2023/04/08 16:03:22;;;;;;;;;;;;;;;;;;5073224;28;19920;-62
2023/04/08 16:05:48;;;;;;;;;;;;;;;;;;5076095;28;20086;-62
2023/04/08 16:08:15;;;;;;;;;;;;;;;;;;5057049;28;20026;-62
2023/04/08 16:10:40;;;;;;;;;;;;;;;;;;5048078;28;20135;-62
2023/04/08 16:13:06;;;;;;;;;;;;;;;;;;5058391;28;20258;-62
2023/04/08 16:15:35;;;;;;;;;;;;;;;;;;5075804;28;19935;-62
2023/04/08 16:18:02;;;;;;;;;;;;;;;;;;5077892;28;19924;-62
2023/04/08 16:20:28;;;;;;;;;;;;;;;;;;5059907;28;19924;-62
2023/04/08 16:22:53;;;;;;;;;;;;;;;;;;5078366;28;19924;-62
2023/04/08 16:25:19;;;;;;;;;;;;;;;;;;5071994;28;20390;-62
2023/04/08 16:27:46;;;;;;;;;;;;;;;;;;5073164;28;20384;-62
2023/04/08 16:30:12;;;;;;;;;;;;;;;;;;5075424;28;19925;-62
2023/04/08 16:32:38;;;;;;;;;;;;;;;;;;5082137;28;19995;-62
2023/04/08 16:35:04;;;;;;;;;;;;;;;;;;5058747;28;20299;-64
2023/04/08 16:37:30;;;;;;;;;;;;;;;;;;5078320;28;20303;-63